Time;durP1;ratioP1;P1;durP2;ratioP2;P2;SDS_P1;SDS_P2;PMS_P1;PMS_P2;Temp;Humidity;BMP_temperature;BMP_pressure;BME280_temperature;BME280_humidity;BME280_pressure;Samples;Min_cycle;Max_cycle;Signal;HPM_P1;HPM_P2
2022/03/10 00:00:13;;;;;;;24.95;12.82;;;;;;;-1.92;60.92;101968.13;1723124;82;25466;-61
2022/03/10 00:02:43;;;;;;;25.15;13.38;;;;;;;-1.92;60.86;101964.17;1729068;82;26991;-60
2022/03/10 00:05:18;;;;;;;23.10;13.68;;;;;;;-1.90;60.86;101965.03;1722814;82;25779;-60
2022/03/10 00:07:46;;;;;;;25.50;12.82;;;;;;;-1.90;60.76;101962.39;1724241;82;25487;-60
2022/03/10 00:10:13;;;;;;;31.00;14.63;;;;;;;-1.84;60.89;101963.20;1728071;82;26286;-60
2022/03/10 00:12:52;;;;;;;30.05;14.25;;;;;;;-1.81;60.89;101961.38;1730702;82;25634;-60
2022/03/10 00:15:23;;;;;;;25.50;13.03;;;;;;;-1.74;60.71;101966.95;1721581;82;27654;-60
2022/03/10 00:17:51;;;;;;;32.38;14.05;;;;;;;-1.72;60.39;101973.98;1731169;82;25997;-60
2022/03/10 00:20:19;;;;;;;30.02;13.85;;;;;;;-1.71;60.39;101969.98;1728481;82;25838;-60
2022/03/10 00:22:52;;;;;;;27.45;14.07;;;;;;;-1.73;60.40;101971.77;1728690;82;25614;-60
2022/03/10 00:25:20;;;;;;;27.65;14.73;;;;;;;-1.72;60.52;101967.38;1718960;82;26280;-60
2022/03/10 00:27:48;;;;;;;29.90;15.80;;;;;;;-1.74;60.50;101965.64;1739167;82;27445;-60
2022/03/10 00:30:16;;;;;;;28.95;14.55;;;;;;;-1.75;60.53;101972.27;1733336;82;25770;-60
2022/03/10 00:32:49;;;;;;;26.97;14.05;;;;;;;-1.74;60.68;101975.30;1725460;82;25876;-60
2022/03/10 00:35:25;;;;;;;29.32;14.95;;;;;;;-1.73;60.79;101971.77;1726787;82;25508;-60
2022/03/10 00:37:53;;;;;;;31.70;15.65;;;;;;;-1.74;60.83;101978.83;1735569;82;25771;-60
2022/03/10 00:40:21;;;;;;;35.10;14.90;;;;;;;-1.75;60.78;101974.45;1728836;82;27466;-60
2022/03/10 00:42:48;;;;;;;28.50;14.53;;;;;;;-1.76;60.67;101971.84;1721156;82;25775;-59
2022/03/10 00:45:17;;;;;;;28.35;13.68;;;;;;;-1.76;60.62;101975.34;1735674;82;25700;-60
2022/03/10 00:47:45;;;;;;;24.23;12.55;;;;;;;-1.73;60.60;101973.09;1726891;82;25497;-60
2022/03/10 00:50:12;;;;;;;32.23;15.10;;;;;;;-1.72;60.47;101970.88;1730941;82;25852;-60
2022/03/10 00:52:44;;;;;;;28.80;13.40;;;;;;;-1.75;60.38;101973.13;1730746;82;28332;-60
2022/03/10 00:55:13;;;;;;;27.70;12.68;;;;;;;-1.70;60.59;101965.59;1723747;81;25836;-60
2022/03/10 00:57:40;;;;;;;28.47;13.35;;;;;;;-1.71;60.39;101963.84;1716320;82;25806;-60
2022/03/10 01:00:08;;;;;;;33.98;14.95;;;;;;;-1.72;60.44;101965.59;1720263;82;26151;-61
2022/03/10 01:02:35;;;;;;;29.52;13.93;;;;;;;-1.71;60.59;101965.17;1724489;82;25427;-60
2022/03/10 01:05:05;;;;;;;28.12;14.33;;;;;;;-1.68;60.56;101967.30;1722736;82;27430;-59
2022/03/10 01:07:32;;;;;;;28.07;13.55;;;;;;;-1.67;60.37;101970.36;1719941;82;25721;-60
2022/03/10 01:09:59;;;;;;;29.63;14.63;;;;;;;-1.65;60.41;101969.00;1722188;82;25645;-60
2022/03/10 01:12:26;;;;;;;26.35;13.50;;;;;;;-1.63;60.38;101969.39;1720707;82;25719;-60
2022/03/10 01:14:54;;;;;;;23.20;12.93;;;;;;;-1.60;60.47;101977.27;1726904;81;25776;-60
2022/03/10 01:17:21;;;;;;;30.88;14.00;;;;;;;-1.61;60.46;101967.59;1718611;82;27447;-60
2022/03/10 01:19:48;;;;;;;28.40;13.10;;;;;;;-1.60;60.43;101973.30;1719495;82;25654;-60
2022/03/10 01:22:17;;;;;;;30.25;13.88;;;;;;;-1.59;60.48;101968.88;1711486;82;25730;-60
2022/03/10 01:24:44;;;;;;;24.05;12.75;;;;;;;-1.59;60.45;101966.24;1722156;82;26262;-60
2022/03/10 01:27:11;;;;;;;24.25;12.45;;;;;;;-1.58;60.35;101966.66;1722814;82;25771;-60
2022/03/10 01:29:38;;;;;;;24.30;11.73;;;;;;;-1.60;60.22;101970.66;1718934;82;28716;-60
2022/03/10 01:32:06;;;;;;;22.27;11.30;;;;;;;-1.63;60.13;101966.75;1720909;82;25729;-60
2022/03/10 01:34:33;;;;;;;24.52;11.63;;;;;;;-1.64;59.90;101976.88;1720679;82;25848;-60
2022/03/10 01:37:00;;;;;;;22.50;10.63;;;;;;;-1.65;60.06;101971.18;1723958;82;25652;-60
2022/03/10 01:39:27;;;;;;;22.48;12.33;;;;;;;-1.61;60.11;101979.91;1717898;82;25772;-60
2022/03/10 01:41:54;;;;;;;24.75;12.25;;;;;;;-1.60;60.13;101981.22;1719476;82;28163;-60
2022/03/10 01:44:22;;;;;;;25.40;12.33;;;;;;;-1.57;60.13;101981.61;1721722;82;25724;-60
2022/03/10 01:46:49;;;;;;;24.72;11.35;;;;;;;-1.56;60.09;101979.39;1722959;82;25731;-59
2022/03/10 01:49:16;;;;;;;19.90;11.38;;;;;;;-1.52;60.02;101985.48;1722924;82;25764;-60
2022/03/10 01:51:44;;;;;;;18.87;9.68;;;;;;;-1.51;59.89;101981.48;1713838;82;25753;-60
2022/03/10 01:54:11;;;;;;;23.32;10.63;;;;;;;-1.52;59.78;101985.02;1725871;82;27422;-60
2022/03/10 01:56:39;;;;;;;20.65;10.38;;;;;;;-1.49;59.89;101984.97;1722892;82;25811;-59
2022/03/10 01:59:06;;;;;;;20.77;9.35;;;;;;;-1.45;59.76;101989.73;1727843;82;25805;-60
2022/03/10 02:01:35;;;;;;;18.95;9.08;;;;;;;-1.46;59.74;101994.16;1723778;82;26150;-59
2022/03/10 02:04:01;;;;;;;20.82;9.93;;;;;;;-1.46;59.51;101988.88;1731253;82;25838;-60
2022/03/10 02:06:29;;;;;;;25.02;10.55;;;;;;;-1.43;59.69;101987.95;1724648;82;27480;-59
2022/03/10 02:11:42;;;;;;;16.17;8.88;;;;;;;-1.50;59.14;101996.42;1728780;82;25877;-59
2022/03/10 02:19:40;;;;;;;20.02;8.90;;;;;;;-1.68;59.57;101997.64;1722802;82;27793;-60
2022/03/10 02:22:13;;;;;;;19.65;9.48;;;;;;;-1.68;59.67;102001.59;1732338;82;25700;-60
2022/03/10 02:24:43;;;;;;;16.90;9.73;;;;;;;-1.66;59.86;102005.52;1724085;82;26010;-60
2022/03/10 02:27:25;;;;;;;16.87;9.30;;;;;;;-1.66;59.83;102007.69;1731646;82;25682;-60
2022/03/10 02:29:59;;;;;;;20.95;9.55;;;;;;;-1.66;59.85;102006.84;1728519;82;25761;-60
2022/03/10 02:32:27;;;;;;;22.90;10.55;;;;;;;-1.65;59.94;102011.22;1710023;82;27453;-62
2022/03/10 02:34:54;;;;;;;19.70;9.95;;;;;;;-1.67;59.98;102002.02;1728001;82;26231;-60
2022/03/10 02:37:21;;;;;;;23.05;12.07;;;;;;;-1.69;60.05;101999.86;1727873;82;25779;-60
2022/03/10 02:39:48;;;;;;;20.05;10.45;;;;;;;-1.71;60.08;102005.60;1721134;82;26154;-61
2022/03/10 02:42:16;;;;;;;22.62;11.33;;;;;;;-1.79;59.94;102005.72;1728159;82;25756;-60
2022/03/10 02:44:47;;;;;;;22.85;10.45;;;;;;;-1.80;60.10;102003.12;1727007;82;27501;-61
2022/03/10 02:47:15;;;;;;;16.77;10.10;;;;;;;-1.82;60.18;102005.80;1728625;82;25999;-61
2022/03/10 02:49:43;;;;;;;18.98;10.15;;;;;;;-1.81;60.39;102011.92;1730428;82;25869;-61
2022/03/10 02:52:10;;;;;;;23.77;9.98;;;;;;;-1.79;60.38;102012.78;1728483;82;25784;-60
2022/03/10 02:54:37;;;;;;;19.20;10.68;;;;;;;-1.80;60.36;102013.67;1724740;82;25921;-61
2022/03/10 02:57:05;;;;;;;17.07;9.48;;;;;;;-1.76;60.57;102020.19;1714340;82;28301;-60
2022/03/10 02:59:32;;;;;;;16.40;9.18;;;;;;;-1.79;60.50;102028.61;1708855;83;25720;-60
2022/03/10 03:01:58;;;;;;;21.00;11.05;;;;;;;-1.81;60.38;102031.28;1710338;83;25724;-60
2022/03/10 03:04:26;;;;;;;19.35;10.80;;;;;;;-1.85;60.41;102031.36;1710499;82;25768;-61
2022/03/10 03:06:53;;;;;;;19.25;10.80;;;;;;;-1.92;60.44;102038.48;1710783;82;25455;-60
2022/03/10 03:09:21;;;;;;;23.60;10.55;;;;;;;-1.97;60.66;102032.43;1710375;82;27485;-60
2022/03/10 03:11:47;;;;;;;17.67;10.25;;;;;;;-2.05;60.70;102028.12;1710356;83;25824;-61
2022/03/10 03:14:14;;;;;;;31.90;12.13;;;;;;;-2.10;60.81;102036.99;1712196;82;25744;-60
2022/03/10 03:16:42;;;;;;;17.32;9.88;;;;;;;-2.20;60.75;102042.87;1710097;83;25890;-60
2022/03/10 03:19:09;;;;;;;17.62;9.75;;;;;;;-2.29;60.77;102046.52;1710178;83;25824;-61
2022/03/10 03:21:36;;;;;;;23.83;10.68;;;;;;;-2.34;60.91;102044.84;1710093;82;27438;-60
2022/03/10 03:24:04;;;;;;;18.62;10.98;;;;;;;-2.43;60.87;102044.52;1709735;82;25768;-60
2022/03/10 03:26:31;;;;;;;19.52;10.35;;;;;;;-2.46;61.13;102045.43;1706525;83;25736;-61
2022/03/10 03:28:58;;;;;;;20.55;9.98;;;;;;;-2.49;61.11;102040.66;1710095;83;25746;-61
2022/03/10 03:31:25;;;;;;;17.87;10.03;;;;;;;-2.53;61.20;102049.05;1668145;85;25750;-61
2022/03/10 03:33:52;;;;;;;15.78;9.25;;;;;;;-2.57;61.27;102052.59;1709070;83;28205;-61
2022/03/10 03:36:18;;;;;;;19.98;9.90;;;;;;;-2.59;61.38;102048.68;1669011;85;25723;-61
2022/03/10 03:38:45;;;;;;;19.27;9.88;;;;;;;-2.67;61.54;102052.72;1660516;85;25766;-61
2022/03/10 03:41:12;;;;;;;20.02;10.15;;;;;;;-2.71;61.63;102050.14;1657207;85;25758;-61
2022/03/10 03:43:39;;;;;;;18.37;9.75;;;;;;;-2.74;61.71;102052.84;1660798;86;25734;-61
2022/03/10 03:46:06;;;;;;;16.02;9.35;;;;;;;-2.76;61.92;102059.42;1661446;85;28325;-61
2022/03/10 03:48:34;;;;;;;31.77;10.38;;;;;;;-2.84;61.89;102066.11;1657788;85;25753;-60
2022/03/10 03:51:00;;;;;;;18.75;10.50;;;;;;;-2.90;61.80;102080.64;1661263;85;25830;-61
2022/03/10 03:53:28;;;;;;;20.60;10.40;;;;;;;-2.96;62.09;102072.83;1661349;86;25814;-61
2022/03/10 03:55:54;;;;;;;19.17;10.23;;;;;;;-3.02;62.15;102076.39;1658130;85;25754;-60
2022/03/10 03:58:21;;;;;;;20.52;10.00;;;;;;;-3.03;62.20;102087.81;1665057;84;27466;-60
2022/03/10 04:00:48;;;;;;;17.87;9.45;;;;;;;-3.07;62.21;102087.44;1665908;86;26017;-60
2022/03/10 04:03:15;;;;;;;16.07;9.53;;;;;;;-3.07;62.39;102090.49;1662077;85;25698;-60
2022/03/10 04:05:42;;;;;;;17.75;9.30;;;;;;;-3.09;62.39;102094.92;1666147;85;25793;-60
2022/03/10 04:08:09;;;;;;;16.95;10.25;;;;;;;-3.12;62.38;102093.63;1665298;84;25850;-60
2022/03/10 04:10:36;;;;;;;16.50;9.58;;;;;;;-3.13;62.45;102100.64;1665812;85;28213;-60
2022/03/10 04:13:05;;;;;;;18.85;9.13;;;;;;;-3.16;62.49;102100.23;1665573;85;25821;-60
2022/03/10 04:15:34;;;;;;;18.37;9.43;;;;;;;-3.18;62.57;102099.37;1665599;86;25794;-60
2022/03/10 04:18:02;;;;;;;19.05;9.98;;;;;;;-3.22;62.63;102107.30;1665408;84;25706;-60
2022/03/10 04:20:29;;;;;;;21.00;9.25;;;;;;;-3.20;62.80;102104.22;1665447;84;25722;-60
2022/03/10 04:22:57;;;;;;;15.53;9.13;;;;;;;-3.20;62.72;102101.59;1669927;85;27728;-60
2022/03/10 04:25:24;;;;;;;16.67;8.98;;;;;;;-3.23;62.76;102109.08;1717409;82;25907;-60
2022/03/10 04:27:53;;;;;;;20.55;10.53;;;;;;;-3.28;63.17;102107.38;1722325;82;25736;-60
2022/03/10 04:30:24;;;;;;;20.05;9.80;;;;;;;-3.34;63.03;102111.82;1718599;83;26151;-60
2022/03/10 04:32:51;;;;;;;18.90;9.58;;;;;;;-3.37;63.43;102118.42;1719339;82;25762;-60
2022/03/10 04:35:20;;;;;;;19.62;9.65;;;;;;;-3.36;63.49;102117.53;1720731;83;27490;-60
2022/03/10 04:37:52;;;;;;;18.92;8.78;;;;;;;-3.33;63.63;102118.83;1724289;82;25783;-61
2022/03/10 04:40:21;;;;;;;17.62;8.98;;;;;;;-3.26;63.90;102115.68;1717281;82;25732;-61
2022/03/10 04:42:49;;;;;;;21.87;9.90;;;;;;;-3.24;63.93;102117.86;1721246;82;25844;-61
2022/03/10 04:45:17;;;;;;;12.60;8.43;;;;;;;-3.22;63.95;102127.05;1710832;82;25843;-60
2022/03/10 04:47:44;;;;;;;17.25;9.95;;;;;;;-3.19;64.04;102135.81;1719307;82;27516;-61
2022/03/10 04:50:14;;;;;;;17.73;9.63;;;;;;;-3.16;63.97;102138.86;1719392;83;25720;-61
2022/03/10 04:52:42;;;;;;;19.12;9.85;;;;;;;-3.13;64.00;102145.84;1719787;82;25748;-60
2022/03/10 04:55:12;;;;;;;16.95;10.35;;;;;;;-3.09;63.79;102151.07;1725906;82;25711;-61
2022/03/10 04:57:41;;;;;;;123.40;16.50;;;;;;;-3.06;63.89;102154.11;1718236;82;25738;-61
2022/03/10 05:00:11;;;;;;;18.95;9.68;;;;;;;-3.06;63.69;102156.75;1728149;82;27473;-61
2022/03/10 05:02:40;;;;;;;16.82;8.88;;;;;;;-3.09;63.71;102156.34;1718630;82;25770;-60
2022/03/10 05:05:08;;;;;;;17.00;9.05;;;;;;;-3.15;63.75;102159.89;1722398;82;25804;-60
2022/03/10 05:07:35;;;;;;;19.45;9.98;;;;;;;-3.09;64.04;102161.60;1719266;82;25803;-60
2022/03/10 05:10:02;;;;;;;19.90;10.55;;;;;;;-3.05;64.03;102166.39;1723611;82;25835;-61
2022/03/10 05:12:29;;;;;;;25.27;10.08;;;;;;;-3.03;63.93;102176.47;1723411;82;27496;-60
2022/03/10 05:14:56;;;;;;;14.38;8.18;;;;;;;-2.98;63.98;102175.97;1718684;82;25973;-60
2022/03/10 05:17:26;;;;;;;19.42;8.95;;;;;;;-2.93;64.04;102178.14;1721136;82;25747;-60
2022/03/10 05:19:53;;;;;;;22.95;9.38;;;;;;;-2.87;64.13;102183.33;1721271;82;25785;-60
2022/03/10 05:22:20;;;;;;;19.50;9.08;;;;;;;-2.83;64.09;102184.17;1722547;82;25682;-60
2022/03/10 05:24:47;;;;;;;19.50;9.70;;;;;;;-2.81;63.98;102190.73;1725932;82;27485;-61
2022/03/10 05:27:14;;;;;;;20.43;11.20;;;;;;;-2.79;64.42;102192.91;1721717;82;25809;-60
2022/03/10 05:29:41;;;;;;;24.65;10.28;;;;;;;-2.86;65.58;102197.36;1715259;82;25827;-61
2022/03/10 05:32:17;;;;;;;20.65;9.53;;;;;;;-2.92;65.10;102192.16;1720110;82;26603;-61
2022/03/10 05:34:42;;;;;;;19.10;10.08;;;;;;;-2.94;66.49;102194.82;1716896;82;25838;-60
2022/03/10 05:37:08;;;;;;;21.95;8.83;;;;;;;-2.97;66.09;102199.25;1720286;82;28218;-60
2022/03/10 05:39:35;;;;;;;18.17;10.48;;;;;;;-2.96;67.11;102196.59;1722122;82;25763;-60
2022/03/10 05:42:03;;;;;;;25.57;10.00;;;;;;;-2.98;66.75;102203.62;1720361;82;25768;-60
2022/03/10 05:44:31;;;;;;;16.15;9.78;;;;;;;-2.98;67.01;102203.62;1724270;82;25841;-61
2022/03/10 05:46:58;;;;;;;21.45;11.68;;;;;;;-2.95;66.75;102210.19;1713973;82;27230;-60
2022/03/10 05:49:24;;;;;;;18.92;10.43;;;;;;;-2.89;67.17;102217.16;1718073;82;27509;-61
2022/03/10 05:51:51;;;;;;;20.72;9.33;;;;;;;-2.87;67.44;102221.52;1720183;82;25872;-60
2022/03/10 05:54:18;;;;;;;19.70;10.10;;;;;;;-2.82;67.68;102217.53;1719291;82;25823;-60
2022/03/10 05:56:45;;;;;;;20.48;8.88;;;;;;;-2.77;67.30;102222.30;1719940;82;25916;-60
2022/03/10 05:59:12;;;;;;;19.20;10.48;;;;;;;-2.71;67.51;102225.32;1726258;82;26897;-61
2022/03/10 06:01:40;;;;;;;15.78;9.43;;;;;;;-2.66;67.20;102224.84;1727832;82;27564;-60
2022/03/10 06:04:07;;;;;;;19.02;9.43;;;;;;;-2.57;67.50;102227.81;1730096;82;25780;-60
2022/03/10 06:06:33;;;;;;;18.62;10.00;;;;;;;-2.52;67.33;102232.16;1725527;82;25998;-60
2022/03/10 06:09:00;;;;;;;22.13;9.68;;;;;;;-2.39;67.19;102233.36;1729303;82;26599;-60
2022/03/10 06:11:27;;;;;;;20.95;11.03;;;;;;;-2.24;67.22;102233.63;1719794;82;25735;-60
2022/03/10 06:13:54;;;;;;;18.92;10.25;;;;;;;-2.12;66.98;102238.74;1722878;82;27493;-60
2022/03/10 06:16:21;;;;;;;31.82;13.08;;;;;;;-2.03;66.67;102243.05;1728646;82;25839;-61
2022/03/10 06:18:48;;;;;;;29.07;13.58;;;;;;;-1.95;66.43;102246.46;1720569;82;25740;-60
2022/03/10 06:21:15;;;;;;;31.95;13.53;;;;;;;-1.89;66.21;102245.52;1731085;82;25804;-60
2022/03/10 06:23:42;;;;;;;36.80;15.30;;;;;;;-1.84;65.84;102250.27;1726627;82;25954;-60
2022/03/10 06:26:10;;;;;;;39.08;13.60;;;;;;;-1.79;65.66;102251.53;1724858;82;28184;-60
2022/03/10 06:28:36;;;;;;;55.25;16.37;;;;;;;-1.75;65.64;102261.16;1722577;82;25820;-60
2022/03/10 06:31:04;;;;;;;27.67;12.90;;;;;;;-1.77;64.92;102253.25;1727870;82;25808;-61
2022/03/10 06:33:31;;;;;;;33.65;14.68;;;;;;;-1.76;64.89;102256.31;1726602;82;26249;-60
2022/03/10 06:35:57;;;;;;;31.68;13.48;;;;;;;-1.74;64.72;102258.92;1727688;82;25786;-61
2022/03/10 06:38:24;;;;;;;28.55;12.58;;;;;;;-1.64;64.74;102262.33;1726035;82;27503;-61
2022/03/10 06:40:51;;;;;;;19.65;10.55;;;;;;;-1.60;64.07;102267.55;1725012;82;25799;-61
2022/03/10 06:43:18;;;;;;;20.92;11.28;;;;;;;-1.57;64.04;102267.48;1726233;82;25816;-61
2022/03/10 06:45:45;;;;;;;17.57;10.15;;;;;;;-1.51;63.73;102265.21;1723256;82;25768;-60
2022/03/10 06:48:12;;;;;;;30.48;9.33;;;;;;;-1.47;63.26;102268.25;1728398;82;25723;-61
2022/03/10 06:50:39;;;;;;;15.25;8.43;;;;;;;-1.47;62.98;102266.93;1734285;82;27655;-61
2022/03/10 06:53:06;;;;;;;20.08;9.48;;;;;;;-1.47;63.07;102268.68;1733027;82;25809;-61
2022/03/10 06:55:33;;;;;;;23.15;9.35;;;;;;;-1.46;62.93;102278.34;1736405;82;25948;-60
2022/03/10 06:57:59;;;;;;;13.70;8.60;;;;;;;-1.45;61.86;102276.13;1740212;81;26199;-60
2022/03/10 07:00:26;;;;;;;15.50;7.75;;;;;;;-1.44;61.78;102277.88;1740506;82;26541;-60
2022/03/10 07:02:53;;;;;;;16.12;7.40;;;;;;;-1.37;61.84;102274.72;1740708;82;27475;-60
2022/03/10 07:05:20;;;;;;;19.07;9.33;;;;;;;-1.29;60.77;102268.41;1740583;82;25821;-60
2022/03/10 07:07:47;;;;;;;15.50;7.60;;;;;;;-1.24;61.14;102272.30;1740546;82;25682;-61
2022/03/10 07:10:13;;;;;;;14.30;8.43;;;;;;;-1.12;61.31;102280.52;1740675;82;25508;-60
2022/03/10 07:12:42;;;;;;;15.60;7.92;;;;;;;-1.00;60.32;102275.02;1740767;82;25498;-60
2022/03/10 07:15:11;;;;;;;15.23;7.55;;;;;;;-0.96;59.48;102284.66;1728456;82;27505;-60
2022/03/10 07:17:41;;;;;;;24.45;9.05;;;;;;;-0.92;58.72;102285.91;1727379;82;25457;-60
2022/03/10 07:20:09;;;;;;;28.20;9.18;;;;;;;-0.85;58.98;102295.50;1724722;82;25481;-60
2022/03/10 07:22:37;;;;;;;18.70;8.45;;;;;;;-0.70;58.37;102289.95;1734488;82;25763;-61
2022/03/10 07:25:05;;;;;;;11.38;7.85;;;;;;;-0.49;58.22;102301.92;1725777;82;25478;-61
2022/03/10 07:27:32;;;;;;;12.07;7.62;;;;;;;-0.32;58.23;102292.38;1727894;82;27461;-61
2022/03/10 07:29:59;;;;;;;15.88;7.50;;;;;;;-0.14;58.56;102296.89;1727337;82;25965;-61
2022/03/10 07:32:29;;;;;;;13.90;7.85;;;;;;;0.04;57.40;102298.77;1725092;82;25740;-61
2022/03/10 07:34:56;;;;;;;12.13;7.62;;;;;;;0.10;56.32;102297.30;1724445;82;25752;-61
2022/03/10 07:37:23;;;;;;;17.23;8.08;;;;;;;0.05;55.76;102300.05;1725368;82;26515;-60
2022/03/10 07:39:50;;;;;;;15.00;8.55;;;;;;;-0.01;56.33;102306.79;1727586;82;27496;-61
2022/03/10 07:42:17;;;;;;;14.03;8.78;;;;;;;0.04;55.91;102301.41;1730564;82;25760;-61
2022/03/10 07:44:44;;;;;;;15.38;8.18;;;;;;;0.08;55.29;102299.10;1727629;82;25757;-61
2022/03/10 07:47:11;;;;;;;12.40;7.55;;;;;;;0.07;55.38;102296.03;1739768;82;25611;-61
2022/03/10 07:49:38;;;;;;;18.12;7.30;;;;;;;0.08;55.94;102304.39;1729253;82;25749;-60
2022/03/10 07:52:06;;;;;;;17.85;8.13;;;;;;;0.17;54.67;102305.53;1732988;82;28200;-61
2022/03/10 07:54:34;;;;;;;24.40;8.70;;;;;;;0.10;54.36;102301.27;1727455;82;25991;-60
2022/03/10 07:57:01;;;;;;;12.93;8.25;;;;;;;0.05;54.24;102301.37;1729593;82;25704;-58
2022/03/10 07:59:28;;;;;;;13.62;7.92;;;;;;;0.03;54.84;102299.19;1729295;82;25851;-61
2022/03/10 08:01:55;;;;;;;11.03;6.80;;;;;;;0.02;54.35;102305.84;1727875;82;25856;-60
2022/03/10 08:04:23;;;;;;;14.23;6.85;;;;;;;-0.02;54.08;102311.19;1724824;82;27588;-61
2022/03/10 08:06:51;;;;;;;16.02;8.23;;;;;;;-0.02;54.41;102308.55;1731165;82;25811;-61
2022/03/10 08:09:18;;;;;;;12.65;8.00;;;;;;;-0.03;54.57;102309.91;1729748;81;26323;-60
2022/03/10 08:11:45;;;;;;;19.57;7.85;;;;;;;-0.08;53.96;102306.46;1725072;82;25807;-60
2022/03/10 08:14:12;;;;;;;13.35;7.22;;;;;;;-0.07;54.83;102307.78;1731406;82;25842;-61
2022/03/10 08:16:40;;;;;;;22.65;9.10;;;;;;;-0.01;54.03;102316.91;1720418;82;27487;-61
2022/03/10 08:19:09;;;;;;;12.73;6.40;;;;;;;0.05;53.71;102317.67;1711845;82;26238;-60
2022/03/10 08:21:36;;;;;;;11.50;6.70;;;;;;;0.08;52.65;102312.33;1724796;82;25744;-61
2022/03/10 08:24:04;;;;;;;17.20;7.08;;;;;;;0.06;53.20;102317.66;1729609;82;25900;-61
2022/03/10 08:26:32;;;;;;;20.90;6.80;;;;;;;0.22;51.75;102316.03;1722113;82;25748;-61
2022/03/10 08:28:59;;;;;;;10.38;5.90;;;;;;;0.17;51.79;102313.94;1730644;82;27480;-60
2022/03/10 08:31:26;;;;;;;32.42;19.23;;;;;;;0.15;50.52;102316.59;1723603;82;25799;-60
2022/03/10 08:33:53;;;;;;;18.98;7.92;;;;;;;0.05;51.74;102325.18;1730875;82;25782;-60
2022/03/10 08:36:20;;;;;;;16.25;7.83;;;;;;;0.02;52.14;102318.61;1733719;82;25836;-60
2022/03/10 08:38:47;;;;;;;12.50;7.50;;;;;;;-0.01;52.35;102327.48;1725884;82;26058;-61
2022/03/10 08:41:14;;;;;;;11.53;7.53;;;;;;;-0.02;52.54;102327.53;1724184;82;28224;-61
2022/03/10 08:43:41;;;;;;;13.38;8.45;;;;;;;-0.02;52.69;102328.39;1722979;82;25773;-60
2022/03/10 08:46:09;;;;;;;12.55;7.97;;;;;;;-0.02;53.19;102324.42;1723508;82;25800;-60
2022/03/10 08:48:36;;;;;;;14.20;8.70;;;;;;;0.07;53.40;102323.38;1728622;82;25840;-61
2022/03/10 08:51:04;;;;;;;22.73;7.80;;;;;;;0.19;53.12;102326.66;1722230;82;25796;-60
2022/03/10 08:53:35;;;;;;;20.52;7.85;;;;;;;0.23;52.85;102331.01;1733756;82;28078;-60
2022/03/10 08:56:04;;;;;;;10.23;6.55;;;;;;;0.29;51.69;102323.83;1740221;82;25910;-60
2022/03/10 08:58:31;;;;;;;15.70;5.80;;;;;;;0.35;51.65;102329.45;1722335;82;25482;-60
2022/03/10 09:00:58;;;;;;;9.48;6.75;;;;;;;0.34;51.14;102329.02;1701632;83;25867;-60
2022/03/10 09:03:26;;;;;;;16.07;7.33;;;;;;;0.31;51.76;102329.08;1700779;83;25749;-60
2022/03/10 09:05:54;;;;;;;14.63;7.33;;;;;;;0.45;50.96;102323.50;1701077;83;27505;-60
2022/03/10 09:08:21;;;;;;;11.90;6.08;;;;;;;0.56;50.78;102332.52;1701072;83;25823;-60
2022/03/10 09:10:48;;;;;;;13.65;7.28;;;;;;;0.66;51.62;102326.59;1701061;82;25743;-60
2022/03/10 09:13:15;;;;;;;10.98;6.75;;;;;;;0.78;50.49;102332.92;1701323;83;26453;-60
2022/03/10 09:15:45;;;;;;;23.10;8.85;;;;;;;0.76;50.86;102317.54;1725433;82;25766;-60
2022/03/10 09:18:11;;;;;;;12.18;7.60;;;;;;;0.69;50.97;102329.16;1724009;82;27859;-60
2022/03/10 09:20:39;;;;;;;12.73;6.72;;;;;;;0.68;50.47;102316.38;1727953;82;25839;-60
2022/03/10 09:23:07;;;;;;;12.47;6.20;;;;;;;0.62;50.10;102320.03;1721165;82;25822;-60
2022/03/10 09:25:34;;;;;;;18.62;7.37;;;;;;;0.69;48.65;102317.23;1733643;82;25791;-60
2022/03/10 09:28:02;;;;;;;16.85;8.23;;;;;;;0.90;49.97;102319.41;1717625;82;25523;-60
2022/03/10 09:30:28;;;;;;;14.30;7.45;;;;;;;1.17;49.08;102323.64;1713252;82;27455;-60
2022/03/10 09:32:57;;;;;;;19.05;8.45;;;;;;;1.21;49.06;102317.34;1723690;82;26316;-60
2022/03/10 09:35:25;;;;;;;19.77;8.45;;;;;;;1.28;48.40;102323.37;1720577;82;26021;-60
2022/03/10 09:37:52;;;;;;;13.72;8.63;;;;;;;1.27;49.56;102332.23;1725715;82;25761;-60
2022/03/10 09:40:20;;;;;;;14.65;8.05;;;;;;;1.24;50.46;102330.53;1731780;81;25713;-60
2022/03/10 09:42:49;;;;;;;20.97;8.63;;;;;;;1.20;51.19;102334.62;1715169;82;27481;-60
2022/03/10 09:45:18;;;;;;;11.40;6.75;;;;;;;1.39;51.75;102325.78;1724303;82;25787;-60
2022/03/10 09:47:46;;;;;;;36.88;8.15;;;;;;;2.24;48.07;102317.31;1729662;82;25711;-60
2022/03/10 09:50:18;;;;;;;13.40;7.67;;;;;;;3.33;47.42;102314.84;1722400;82;25772;-60
2022/03/10 09:52:47;;;;;;;11.60;6.85;;;;;;;4.47;46.47;102303.25;1722894;82;25755;-61
2022/03/10 09:55:17;;;;;;;13.50;7.05;;;;;;;5.83;42.77;102292.84;1731348;82;27418;-60
2022/03/10 09:57:48;;;;;;;15.53;8.45;;;;;;;6.29;40.27;102299.27;1732331;82;25747;-60
2022/03/10 10:00:17;;;;;;;36.73;7.05;;;;;;;6.95;39.64;102289.44;1726822;82;25767;-60
2022/03/10 10:02:45;;;;;;;10.88;5.30;;;;;;;6.41;38.89;102300.02;1733628;82;26525;-60
2022/03/10 10:05:31;;;;;;;13.98;5.28;;;;;;;6.17;35.96;102302.89;1725709;82;25780;-60
2022/03/10 10:08:09;;;;;;;16.60;6.87;;;;;;;5.71;37.74;102303.56;1725812;82;27474;-60
2022/03/10 10:10:43;;;;;;;12.60;5.53;;;;;;;5.01;37.64;102301.16;1739765;82;25870;-60
2022/03/10 10:13:29;;;;;;;12.90;5.50;;;;;;;4.50;38.15;102318.66;1740409;82;25798;-60
2022/03/10 10:16:01;;;;;;;9.35;5.78;;;;;;;3.88;39.07;102326.73;1728238;82;26966;-60
2022/03/10 10:18:29;;;;;;;11.93;4.97;;;;;;;3.38;40.89;102331.06;1729863;82;25533;-60
2022/03/10 10:20:57;;;;;;;10.03;4.85;;;;;;;3.08;41.16;102335.59;1734299;82;27479;-60
2022/03/10 10:23:34;;;;;;;8.78;5.10;;;;;;;2.94;42.27;102332.93;1709689;83;25800;-60
2022/03/10 10:26:08;;;;;;;8.60;5.65;;;;;;;2.80;43.31;102341.33;1709441;82;25756;-60
2022/03/10 10:28:40;;;;;;;10.90;5.70;;;;;;;2.47;44.83;102344.53;1710020;82;25754;-61
2022/03/10 10:31:14;;;;;;;11.30;5.30;;;;;;;2.00;46.75;102341.84;1709535;83;25814;-60
2022/03/10 10:33:46;;;;;;;12.13;5.67;;;;;;;1.69;48.54;102347.09;1709545;82;28120;-60
2022/03/10 10:36:16;;;;;;;8.55;5.30;;;;;;;1.42;49.55;102348.22;1722623;82;25803;-60
2022/03/10 10:38:47;;;;;;;15.25;4.87;;;;;;;1.20;50.19;102347.44;1740501;82;25811;-60
2022/03/10 10:41:25;;;;;;;15.20;7.10;;;;;;;1.14;50.97;102346.70;1740350;82;26632;-60
2022/03/10 10:43:59;;;;;;;8.78;6.15;;;;;;;1.12;53.25;102352.48;1709644;83;25832;-59
2022/03/10 10:46:38;;;;;;;12.55;7.10;;;;;;;1.17;54.89;102349.26;1720487;82;27462;-60
2022/03/10 10:49:11;;;;;;;10.45;6.17;;;;;;;1.12;55.84;102335.25;1725152;82;25830;-60
2022/03/10 10:51:51;;;;;;;10.73;7.43;;;;;;;1.49;55.67;102327.73;1731143;82;25716;-61
2022/03/10 10:54:26;;;;;;;11.70;5.33;;;;;;;2.90;54.54;102313.13;1740066;82;26620;-61
2022/03/10 10:56:56;;;;;;;9.93;5.78;;;;;;;4.70;52.59;102301.03;1710951;83;25729;-61
2022/03/10 10:59:41;;;;;;;9.98;5.70;;;;;;;6.41;48.37;102296.89;1702838;82;27471;-62
2022/03/10 11:02:12;;;;;;;12.05;5.33;;;;;;;7.03;42.18;102289.93;1700810;83;26538;-61
2022/03/10 11:04:43;;;;;;;7.00;4.83;;;;;;;6.57;38.14;102297.50;1739466;82;25520;-61
2022/03/10 11:07:13;;;;;;;8.03;4.78;;;;;;;5.84;38.30;102299.88;1740734;82;25812;-62
2022/03/10 11:09:43;;;;;;;5.90;4.20;;;;;;;5.26;37.58;102298.80;1705029;84;25549;-62
2022/03/10 11:12:13;;;;;;;8.65;4.70;;;;;;;5.08;36.00;102289.74;1702879;84;27481;-62
2022/03/10 11:14:45;;;;;;;4.75;3.60;;;;;;;5.20;36.50;102293.25;1704995;84;25784;-62
2022/03/10 11:17:15;;;;;;;13.08;4.12;;;;;;;6.08;35.01;102292.17;1704853;84;25804;-62
2022/03/10 11:19:50;;;;;;;8.38;4.12;;;;;;;5.74;35.59;102288.27;1704966;84;25765;-61
2022/03/10 11:22:37;;;;;;;6.33;4.22;;;;;;;5.10;34.17;102298.11;1704870;83;26517;-61
2022/03/10 11:25:31;;;;;;;8.35;4.62;;;;;;;4.41;35.17;102304.35;1704764;84;28791;-61
2022/03/10 11:28:03;;;;;;;9.63;4.47;;;;;;;3.94;36.30;102315.84;1705067;84;25718;-62
2022/03/10 11:30:32;;;;;;;11.70;4.25;;;;;;;3.53;38.23;102314.19;1705020;84;25856;-61